Tropical Cyclones
[Index]
Main Index Home Page Stock Weather Photos Extreme Storms Discussion Storm News and Storm Chasing Reports Tropical Cyclones / Hurricanes / Typhoons Weather Data and Links Wild Fires / Bushfires Weather Observation Techniques Weather Picture Catalogue Tornado Pictures and Reports Stock Video Footage and DVDs for sale
Season 1993-1994 Tropical Cyclone IVY Track Map
Season 1993-1994 Summaries: [BoM-AU] [JTWC-AU] [JTWC-SIO] [JTWC-SPAC] [JTWC-SH]
<<- Previous TC | JTWC 1993-1994 Season | Next TC ->>

click for intensity scale information  Lat/long Grid: Show Hide

 Date Labels: Show Hide

Joint Typhoon Warning Centre Cyclone Data

Name: IVY

06 Feb 1994 00:00 UTC to 19 Feb 1994 18:00 UTC

    date/time    lat    long     hPa   cat  kts
1994-02-06 00   12.1    95.1                  20          
1994-02-06 06   12.3    94.5                  20          
1994-02-06 12   12.4    93.8                  20          
1994-02-06 18   12.6    93.0                  20          
1994-02-07 00   12.8    92.0                  25          
1994-02-07 06   13.0    91.0                  25          
1994-02-07 12   13.1    90.0                  25          
1994-02-07 18   13.2    89.1                  25          
1994-02-08 00   13.3    88.2                  25          
1994-02-08 06   13.4    87.4                  25          
1994-02-08 12   13.5    86.2                  25          
1994-02-08 18   13.5    84.9                  25          
1994-02-09 00   13.5    83.7                  25          
1994-02-09 06   13.4    82.6                  25          
1994-02-09 12   13.3    81.5                  30          
1994-02-09 18   13.1    80.3                  30          
1994-02-10 00   12.8    79.2                  35          
1994-02-10 06   12.5    78.4                  35          
1994-02-10 12   12.2    77.8                  35          
1994-02-10 18   11.8    77.2            1     40          
1994-02-11 00   11.5    76.8            1     40          
1994-02-11 06   11.1    76.7            1     40          
1994-02-11 12   11.1    76.1            1     40          
1994-02-11 18   11.5    75.1            1     45          
1994-02-12 00   12.3    73.8            1     50          
1994-02-12 06   13.1    72.7            2     55          
1994-02-12 12   13.9    71.6            2     60          
1994-02-12 18   14.6    70.3            2     65          
1994-02-13 00   15.4    69.1            2     65          
1994-02-13 06   16.0    67.8            2     65          
1994-02-13 12   16.4    66.7            2     60          
1994-02-13 18   16.8    65.8            2     55          
1994-02-14 00   17.3    65.4            2     55          
1994-02-14 06   17.7    64.9            1     50          
1994-02-14 12   18.0    64.0            1     50          
1994-02-14 18   18.4    63.3            1     50          
1994-02-15 00   18.8    62.8            1     45          
1994-02-15 06   19.4    62.5            1     45          
1994-02-15 12   19.8    62.3            1     50          
1994-02-15 18   20.2    62.3            2     55          
1994-02-16 00   20.7    62.4            2     60          
1994-02-16 06   21.3    62.5            2     70          
1994-02-16 12   21.9    62.7            3     75          
1994-02-16 18   22.6    62.7            3     80          
1994-02-17 00   23.3    62.6            3     90          
1994-02-17 06   23.8    62.4            4    100          
1994-02-17 12   24.1    62.2            3     90          
1994-02-17 18   24.3    62.0            3     80          
1994-02-18 00   24.5    61.9            3     75          
1994-02-18 06   24.7    61.8            2     70          
1994-02-18 12   24.9    61.7            2     65          
1994-02-18 18   25.2    61.5            2     60          
1994-02-19 00   25.6    61.2            2     55          
1994-02-19 06   26.1    60.9            1     50          
1994-02-19 12   26.6    60.5            1     40          
1994-02-19 18   27.1    60.1                  35          
Winds are 1-min average.

Tropical cyclone tracks developed by Michael Bath using data from the Joint Typhoon Warning Centre Best Tracks and Google Maps.


[Australian Severe Weather index] [Copyright Notice] [Email Contacts] [Search This Site] [Privacy Policy]
Document: tropical_cyclone_ivy.htm Updated: 18 September 2016